sensor_id;sensor_type;location;lat;lon;timestamp;temperature;humidity
17813;DHT22;9030;50.792;8.320;2023-04-25T00:00:20;4.70;99.90
17813;DHT22;9030;50.792;8.320;2023-04-25T00:02:47;4.70;99.90
17813;DHT22;9030;50.792;8.320;2023-04-25T00:05:15;4.60;99.90
17813;DHT22;9030;50.792;8.320;2023-04-25T00:07:42;4.60;99.90
17813;DHT22;9030;50.792;8.320;2023-04-25T00:10:09;4.90;99.90
17813;DHT22;9030;50.792;8.320;2023-04-25T00:12:37;5.10;99.90
17813;DHT22;9030;50.792;8.320;2023-04-25T00:15:05;5.10;99.90
17813;DHT22;9030;50.792;8.320;2023-04-25T00:17:32;5.00;99.90
17813;DHT22;9030;50.792;8.320;2023-04-25T00:20:00;4.90;99.90
17813;DHT22;9030;50.792;8.320;2023-04-25T00:22:31;4.70;99.90
17813;DHT22;9030;50.792;8.320;2023-04-25T00:24:59;4.60;99.90
17813;DHT22;9030;50.792;8.320;2023-04-25T00:27:26;4.60;99.90
17813;DHT22;9030;50.792;8.320;2023-04-25T00:29:52;4.60;99.90
17813;DHT22;9030;50.792;8.320;2023-04-25T00:32:19;4.60;99.90
17813;DHT22;9030;50.792;8.320;2023-04-25T00:34:46;4.60;99.90
17813;DHT22;9030;50.792;8.320;2023-04-25T00:37:13;4.50;99.90
17813;DHT22;9030;50.792;8.320;2023-04-25T00:39:41;4.40;99.90
17813;DHT22;9030;50.792;8.320;2023-04-25T00:42:08;4.40;99.90
17813;DHT22;9030;50.792;8.320;2023-04-25T00:44:35;4.40;99.90
17813;DHT22;9030;50.792;8.320;2023-04-25T00:47:03;4.30;99.90
17813;DHT22;9030;50.792;8.320;2023-04-25T00:49:30;4.30;99.90
17813;DHT22;9030;50.792;8.320;2023-04-25T00:51:56;4.30;99.90
17813;DHT22;9030;50.792;8.320;2023-04-25T00:54:23;4.30;99.90
17813;DHT22;9030;50.792;8.320;2023-04-25T00:56:52;4.20;99.90
17813;DHT22;9030;50.792;8.320;2023-04-25T00:59:19;4.00;99.90
17813;DHT22;9030;50.792;8.320;2023-04-25T01:01:46;3.90;99.90
17813;DHT22;9030;50.792;8.320;2023-04-25T01:04:13;3.90;99.90
17813;DHT22;9030;50.792;8.320;2023-04-25T01:06:40;4.00;99.90
17813;DHT22;9030;50.792;8.320;2023-04-25T01:09:07;4.00;99.90
17813;DHT22;9030;50.792;8.320;2023-04-25T01:11:35;3.90;99.90
17813;DHT22;9030;50.792;8.320;2023-04-25T01:14:03;3.80;99.90
17813;DHT22;9030;50.792;8.320;2023-04-25T01:16:30;3.70;99.90
17813;DHT22;9030;50.792;8.320;2023-04-25T01:18:57;3.60;99.90
17813;DHT22;9030;50.792;8.320;2023-04-25T01:21:26;3.60;99.90
17813;DHT22;9030;50.792;8.320;2023-04-25T01:23:55;3.60;99.90
17813;DHT22;9030;50.792;8.320;2023-04-25T01:26:22;3.60;99.90
17813;DHT22;9030;50.792;8.320;2023-04-25T01:28:49;3.40;99.90
17813;DHT22;9030;50.792;8.320;2023-04-25T01:31:17;3.40;99.90
17813;DHT22;9030;50.792;8.320;2023-04-25T01:33:44;3.40;99.90
17813;DHT22;9030;50.792;8.320;2023-04-25T01:36:12;3.30;99.90
17813;DHT22;9030;50.792;8.320;2023-04-25T01:38:41;3.20;99.90
17813;DHT22;9030;50.792;8.320;2023-04-25T01:41:09;3.30;99.90
17813;DHT22;9030;50.792;8.320;2023-04-25T01:43:36;3.30;99.90
17813;DHT22;9030;50.792;8.320;2023-04-25T01:46:03;3.30;99.90
17813;DHT22;9030;50.792;8.320;2023-04-25T01:48:30;3.30;99.90
17813;DHT22;9030;50.792;8.320;2023-04-25T01:50:57;3.20;99.90
17813;DHT22;9030;50.792;8.320;2023-04-25T01:53:24;3.20;99.90
17813;DHT22;9030;50.792;8.320;2023-04-25T01:55:52;3.20;99.90
17813;DHT22;9030;50.792;8.320;2023-04-25T01:58:19;3.20;99.90
17813;DHT22;9030;50.792;8.320;2023-04-25T02:00:46;3.10;99.90
17813;DHT22;9030;50.792;8.320;2023-04-25T02:03:13;3.10;99.90
17813;DHT22;9030;50.792;8.320;2023-04-25T02:05:40;3.20;99.90
17813;DHT22;9030;50.792;8.320;2023-04-25T02:08:08;3.20;99.90
17813;DHT22;9030;50.792;8.320;2023-04-25T02:10:36;3.30;99.90
17813;DHT22;9030;50.792;8.320;2023-04-25T02:13:04;3.40;99.90
17813;DHT22;9030;50.792;8.320;2023-04-25T02:15:31;3.70;99.90
17813;DHT22;9030;50.792;8.320;2023-04-25T02:17:58;3.90;99.90
17813;DHT22;9030;50.792;8.320;2023-04-25T02:20:28;4.00;99.90
17813;DHT22;9030;50.792;8.320;2023-04-25T02:22:55;4.10;99.90
17813;DHT22;9030;50.792;8.320;2023-04-25T02:25:22;4.30;99.90
17813;DHT22;9030;50.792;8.320;2023-04-25T02:27:49;4.30;99.90
17813;DHT22;9030;50.792;8.320;2023-04-25T02:30:18;4.40;99.90
17813;DHT22;9030;50.792;8.320;2023-04-25T02:32:45;4.40;99.90
17813;DHT22;9030;50.792;8.320;2023-04-25T02:35:12;4.50;99.90
17813;DHT22;9030;50.792;8.320;2023-04-25T02:37:39;4.50;99.90
17813;DHT22;9030;50.792;8.320;2023-04-25T02:40:07;4.50;99.90
17813;DHT22;9030;50.792;8.320;2023-04-25T02:42:35;4.50;99.90
17813;DHT22;9030;50.792;8.320;2023-04-25T02:45:02;4.60;99.90
17813;DHT22;9030;50.792;8.320;2023-04-25T02:47:30;4.60;99.90
17813;DHT22;9030;50.792;8.320;2023-04-25T02:49:57;4.60;99.90
17813;DHT22;9030;50.792;8.320;2023-04-25T02:52:24;4.60;99.90
17813;DHT22;9030;50.792;8.320;2023-04-25T02:54:51;4.60;99.90
17813;DHT22;9030;50.792;8.320;2023-04-25T02:57:18;4.60;99.90
17813;DHT22;9030;50.792;8.320;2023-04-25T02:59:44;4.60;99.90
17813;DHT22;9030;50.792;8.320;2023-04-25T03:02:11;4.50;99.90
17813;DHT22;9030;50.792;8.320;2023-04-25T03:04:39;4.60;99.90
17813;DHT22;9030;50.792;8.320;2023-04-25T03:07:06;4.60;99.90
17813;DHT22;9030;50.792;8.320;2023-04-25T03:09:33;4.60;99.90
17813;DHT22;9030;50.792;8.320;2023-04-25T03:12:00;4.60;99.90
17813;DHT22;9030;50.792;8.320;2023-04-25T03:14:27;4.60;99.90
17813;DHT22;9030;50.792;8.320;2023-04-25T03:16:53;4.60;99.90
17813;DHT22;9030;50.792;8.320;2023-04-25T03:19:20;4.60;99.90
17813;DHT22;9030;50.792;8.320;2023-04-25T03:21:48;4.60;99.90
17813;DHT22;9030;50.792;8.320;2023-04-25T03:24:15;4.70;99.90
17813;DHT22;9030;50.792;8.320;2023-04-25T03:26:42;4.70;99.90
17813;DHT22;9030;50.792;8.320;2023-04-25T03:29:09;4.70;99.90
17813;DHT22;9030;50.792;8.320;2023-04-25T03:31:36;4.60;99.90
17813;DHT22;9030;50.792;8.320;2023-04-25T03:34:02;4.60;99.90
17813;DHT22;9030;50.792;8.320;2023-04-25T03:36:29;4.60;99.90
17813;DHT22;9030;50.792;8.320;2023-04-25T03:38:57;4.60;99.90
17813;DHT22;9030;50.792;8.320;2023-04-25T03:41:24;4.60;99.90
17813;DHT22;9030;50.792;8.320;2023-04-25T03:43:51;4.40;99.90
17813;DHT22;9030;50.792;8.320;2023-04-25T03:46:18;4.40;99.90
17813;DHT22;9030;50.792;8.320;2023-04-25T03:48:45;4.40;99.90
17813;DHT22;9030;50.792;8.320;2023-04-25T03:51:11;4.30;99.90
17813;DHT22;9030;50.792;8.320;2023-04-25T03:53:38;4.30;99.90
17813;DHT22;9030;50.792;8.320;2023-04-25T03:56:06;4.10;99.90
17813;DHT22;9030;50.792;8.320;2023-04-25T03:58:35;4.10;99.90
17813;DHT22;9030;50.792;8.320;2023-04-25T04:01:01;4.10;99.90
17813;DHT22;9030;50.792;8.320;2023-04-25T04:03:32;4.00;99.90
17813;DHT22;9030;50.792;8.320;2023-04-25T04:05:59;4.00;99.90
17813;DHT22;9030;50.792;8.320;2023-04-25T04:08:26;4.00;99.90
17813;DHT22;9030;50.792;8.320;2023-04-25T04:10:53;3.90;99.90
17813;DHT22;9030;50.792;8.320;2023-04-25T04:13:22;3.90;99.90
17813;DHT22;9030;50.792;8.320;2023-04-25T04:15:49;4.00;99.90
17813;DHT22;9030;50.792;8.320;2023-04-25T04:18:16;3.80;99.90
17813;DHT22;9030;50.792;8.320;2023-04-25T04:20:42;3.80;99.90
17813;DHT22;9030;50.792;8.320;2023-04-25T04:23:09;3.80;99.90
17813;DHT22;9030;50.792;8.320;2023-04-25T04:25:36;3.90;99.90
17813;DHT22;9030;50.792;8.320;2023-04-25T04:28:03;3.80;99.90
17813;DHT22;9030;50.792;8.320;2023-04-25T04:30:31;3.90;99.90
17813;DHT22;9030;50.792;8.320;2023-04-25T04:33:01;3.90;99.90
17813;DHT22;9030;50.792;8.320;2023-04-25T04:35:28;4.00;99.90
17813;DHT22;9030;50.792;8.320;2023-04-25T04:37:55;4.00;99.90
17813;DHT22;9030;50.792;8.320;2023-04-25T04:40:22;4.00;99.90
17813;DHT22;9030;50.792;8.320;2023-04-25T04:42:49;4.10;99.90
17813;DHT22;9030;50.792;8.320;2023-04-25T04:45:16;4.10;99.90
17813;DHT22;9030;50.792;8.320;2023-04-25T04:47:45;4.10;99.90
17813;DHT22;9030;50.792;8.320;2023-04-25T04:50:11;4.20;99.90
17813;DHT22;9030;50.792;8.320;2023-04-25T04:52:38;4.30;99.90
17813;DHT22;9030;50.792;8.320;2023-04-25T04:55:06;4.30;99.90
17813;DHT22;9030;50.792;8.320;2023-04-25T04:57:33;4.20;99.90
17813;DHT22;9030;50.792;8.320;2023-04-25T05:00:00;4.30;99.90
17813;DHT22;9030;50.792;8.320;2023-04-25T05:02:27;4.30;99.90
17813;DHT22;9030;50.792;8.320;2023-04-25T05:04:56;4.30;99.90
17813;DHT22;9030;50.792;8.320;2023-04-25T05:07:23;4.40;99.90
17813;DHT22;9030;50.792;8.320;2023-04-25T05:09:50;4.40;99.90
17813;DHT22;9030;50.792;8.320;2023-04-25T05:12:17;4.40;99.90
17813;DHT22;9030;50.792;8.320;2023-04-25T05:14:43;4.40;99.90
17813;DHT22;9030;50.792;8.320;2023-04-25T05:17:10;4.40;99.90
17813;DHT22;9030;50.792;8.320;2023-04-25T05:19:37;4.40;99.90
17813;DHT22;9030;50.792;8.320;2023-04-25T05:22:06;4.50;99.90
17813;DHT22;9030;50.792;8.320;2023-04-25T05:24:32;4.50;99.90
17813;DHT22;9030;50.792;8.320;2023-04-25T05:26:59;4.60;99.90
17813;DHT22;9030;50.792;8.320;2023-04-25T05:29:26;4.70;99.90
17813;DHT22;9030;50.792;8.320;2023-04-25T05:31:53;4.80;99.90
17813;DHT22;9030;50.792;8.320;2023-04-25T05:34:19;4.80;99.90
17813;DHT22;9030;50.792;8.320;2023-04-25T05:36:46;4.90;99.90
17813;DHT22;9030;50.792;8.320;2023-04-25T05:39:16;4.90;99.90
17813;DHT22;9030;50.792;8.320;2023-04-25T05:41:43;5.00;99.90
17813;DHT22;9030;50.792;8.320;2023-04-25T05:44:10;4.90;99.90
17813;DHT22;9030;50.792;8.320;2023-04-25T05:46:37;5.00;99.90
17813;DHT22;9030;50.792;8.320;2023-04-25T05:49:03;5.00;99.90
17813;DHT22;9030;50.792;8.320;2023-04-25T05:51:30;5.00;99.90
17813;DHT22;9030;50.792;8.320;2023-04-25T05:53:57;5.10;99.90
17813;DHT22;9030;50.792;8.320;2023-04-25T05:56:25;5.10;99.90
17813;DHT22;9030;50.792;8.320;2023-04-25T05:58:52;5.10;99.90
17813;DHT22;9030;50.792;8.320;2023-04-25T06:01:19;5.10;99.90
17813;DHT22;9030;50.792;8.320;2023-04-25T06:03:46;5.20;99.90
17813;DHT22;9030;50.792;8.320;2023-04-25T06:06:12;5.20;99.90
17813;DHT22;9030;50.792;8.320;2023-04-25T06:08:39;5.20;99.90
17813;DHT22;9030;50.792;8.320;2023-04-25T06:11:06;5.30;99.90
17813;DHT22;9030;50.792;8.320;2023-04-25T06:13:34;5.40;99.90
17813;DHT22;9030;50.792;8.320;2023-04-25T06:16:01;5.40;99.90
17813;DHT22;9030;50.792;8.320;2023-04-25T06:18:28;5.50;99.90
17813;DHT22;9030;50.792;8.320;2023-04-25T06:20:54;5.50;99.90
17813;DHT22;9030;50.792;8.320;2023-04-25T06:23:21;5.50;99.90
17813;DHT22;9030;50.792;8.320;2023-04-25T06:25:48;5.50;99.90
17813;DHT22;9030;50.792;8.320;2023-04-25T06:28:15;5.50;99.90
17813;DHT22;9030;50.792;8.320;2023-04-25T06:30:43;5.50;99.90
17813;DHT22;9030;50.792;8.320;2023-04-25T06:33:09;5.60;99.90
17813;DHT22;9030;50.792;8.320;2023-04-25T06:35:36;5.70;99.90
17813;DHT22;9030;50.792;8.320;2023-04-25T06:38:03;5.70;99.90
17813;DHT22;9030;50.792;8.320;2023-04-25T06:40:29;5.80;99.90
17813;DHT22;9030;50.792;8.320;2023-04-25T06:42:56;5.80;99.90
17813;DHT22;9030;50.792;8.320;2023-04-25T06:45:23;5.80;99.90
17813;DHT22;9030;50.792;8.320;2023-04-25T06:47:51;5.80;99.90
17813;DHT22;9030;50.792;8.320;2023-04-25T06:50:18;5.80;99.90
17813;DHT22;9030;50.792;8.320;2023-04-25T06:52:44;5.80;99.90
17813;DHT22;9030;50.792;8.320;2023-04-25T06:55:11;5.90;99.90
17813;DHT22;9030;50.792;8.320;2023-04-25T06:57:38;6.00;99.90
17813;DHT22;9030;50.792;8.320;2023-04-25T07:00:06;6.30;99.90
17813;DHT22;9030;50.792;8.320;2023-04-25T07:02:34;6.50;99.90
17813;DHT22;9030;50.792;8.320;2023-04-25T07:05:03;6.50;99.90
17813;DHT22;9030;50.792;8.320;2023-04-25T07:07:31;6.50;99.90
17813;DHT22;9030;50.792;8.320;2023-04-25T07:09:57;6.50;99.90
17813;DHT22;9030;50.792;8.320;2023-04-25T07:12:24;6.50;99.90
17813;DHT22;9030;50.792;8.320;2023-04-25T07:14:51;6.50;99.90
17813;DHT22;9030;50.792;8.320;2023-04-25T07:17:18;6.50;99.90
17813;DHT22;9030;50.792;8.320;2023-04-25T07:19:44;6.60;99.90
17813;DHT22;9030;50.792;8.320;2023-04-25T07:22:12;6.60;99.90
17813;DHT22;9030;50.792;8.320;2023-04-25T07:24:39;6.40;99.90
17813;DHT22;9030;50.792;8.320;2023-04-25T07:27:06;6.30;99.90
17813;DHT22;9030;50.792;8.320;2023-04-25T07:29:33;6.20;99.90
17813;DHT22;9030;50.792;8.320;2023-04-25T07:32:02;6.10;99.90
17813;DHT22;9030;50.792;8.320;2023-04-25T07:34:29;6.10;99.90
17813;DHT22;9030;50.792;8.320;2023-04-25T07:36:56;6.20;99.90
17813;DHT22;9030;50.792;8.320;2023-04-25T07:39:26;6.40;99.90
17813;DHT22;9030;50.792;8.320;2023-04-25T07:41:52;6.70;99.90
17813;DHT22;9030;50.792;8.320;2023-04-25T07:44:20;6.60;99.90
17813;DHT22;9030;50.792;8.320;2023-04-25T07:46:47;6.60;99.90
17813;DHT22;9030;50.792;8.320;2023-04-25T07:49:13;6.60;99.90
17813;DHT22;9030;50.792;8.320;2023-04-25T07:51:40;6.80;99.90
17813;DHT22;9030;50.792;8.320;2023-04-25T07:54:08;6.80;99.90
17813;DHT22;9030;50.792;8.320;2023-04-25T07:56:36;6.60;99.90
17813;DHT22;9030;50.792;8.320;2023-04-25T07:59:03;6.70;99.90
17813;DHT22;9030;50.792;8.320;2023-04-25T08:01:30;6.60;99.90
17813;DHT22;9030;50.792;8.320;2023-04-25T08:03:57;6.60;99.90
17813;DHT22;9030;50.792;8.320;2023-04-25T08:06:24;6.70;99.90
17813;DHT22;9030;50.792;8.320;2023-04-25T08:08:51;6.60;99.90
17813;DHT22;9030;50.792;8.320;2023-04-25T08:11:17;6.50;99.90
17813;DHT22;9030;50.792;8.320;2023-04-25T08:13:45;6.50;99.90
17813;DHT22;9030;50.792;8.320;2023-04-25T08:16:12;6.40;99.90
17813;DHT22;9030;50.792;8.320;2023-04-25T08:18:39;6.60;99.90
17813;DHT22;9030;50.792;8.320;2023-04-25T08:21:06;6.60;99.90
17813;DHT22;9030;50.792;8.320;2023-04-25T08:23:34;6.70;99.90
17813;DHT22;9030;50.792;8.320;2023-04-25T08:26:01;6.90;99.90
17813;DHT22;9030;50.792;8.320;2023-04-25T08:28:28;6.90;99.90
17813;DHT22;9030;50.792;8.320;2023-04-25T08:30:56;6.80;99.90
17813;DHT22;9030;50.792;8.320;2023-04-25T08:33:23;7.30;99.90
17813;DHT22;9030;50.792;8.320;2023-04-25T08:35:49;7.50;99.90
17813;DHT22;9030;50.792;8.320;2023-04-25T08:38:17;7.30;99.90
17813;DHT22;9030;50.792;8.320;2023-04-25T08:40:44;7.20;99.90
17813;DHT22;9030;50.792;8.320;2023-04-25T08:43:13;7.30;99.90
17813;DHT22;9030;50.792;8.320;2023-04-25T08:45:41;7.50;99.90
17813;DHT22;9030;50.792;8.320;2023-04-25T08:48:11;7.70;99.90
17813;DHT22;9030;50.792;8.320;2023-04-25T08:50:40;8.00;99.90
17813;DHT22;9030;50.792;8.320;2023-04-25T08:53:09;8.10;99.90
17813;DHT22;9030;50.792;8.320;2023-04-25T08:55:41;7.90;99.90
17813;DHT22;9030;50.792;8.320;2023-04-25T08:58:09;7.60;99.90
17813;DHT22;9030;50.792;8.320;2023-04-25T09:00:37;7.60;99.90
17813;DHT22;9030;50.792;8.320;2023-04-25T09:03:04;7.50;99.90
17813;DHT22;9030;50.792;8.320;2023-04-25T09:05:33;7.40;99.90
17813;DHT22;9030;50.792;8.320;2023-04-25T09:08:00;7.80;99.90
17813;DHT22;9030;50.792;8.320;2023-04-25T09:10:27;8.00;99.90
17813;DHT22;9030;50.792;8.320;2023-04-25T09:13:04;7.80;99.90
17813;DHT22;9030;50.792;8.320;2023-04-25T09:15:32;7.70;99.90
17813;DHT22;9030;50.792;8.320;2023-04-25T09:17:59;7.70;99.90
17813;DHT22;9030;50.792;8.320;2023-04-25T09:20:26;7.70;99.90
17813;DHT22;9030;50.792;8.320;2023-04-25T09:23:04;7.80;99.90
17813;DHT22;9030;50.792;8.320;2023-04-25T09:25:36;7.90;99.90
17813;DHT22;9030;50.792;8.320;2023-04-25T09:28:05;8.00;99.90
17813;DHT22;9030;50.792;8.320;2023-04-25T09:30:33;7.70;99.90
17813;DHT22;9030;50.792;8.320;2023-04-25T09:33:04;7.40;99.90
17813;DHT22;9030;50.792;8.320;2023-04-25T09:35:35;7.40;99.90
17813;DHT22;9030;50.792;8.320;2023-04-25T09:38:09;7.40;99.90
17813;DHT22;9030;50.792;8.320;2023-04-25T09:40:39;7.20;99.90
17813;DHT22;9030;50.792;8.320;2023-04-25T09:43:09;7.30;99.90
17813;DHT22;9030;50.792;8.320;2023-04-25T09:45:41;7.30;99.90
17813;DHT22;9030;50.792;8.320;2023-04-25T09:48:17;7.30;99.90
17813;DHT22;9030;50.792;8.320;2023-04-25T09:50:44;7.80;99.90
17813;DHT22;9030;50.792;8.320;2023-04-25T09:53:12;8.30;99.90
17813;DHT22;9030;50.792;8.320;2023-04-25T09:55:40;8.90;99.90
17813;DHT22;9030;50.792;8.320;2023-04-25T09:58:09;9.50;99.90
17813;DHT22;9030;50.792;8.320;2023-04-25T10:00:37;9.50;99.90
17813;DHT22;9030;50.792;8.320;2023-04-25T10:03:06;9.20;99.90
17813;DHT22;9030;50.792;8.320;2023-04-25T10:05:34;8.80;99.90
17813;DHT22;9030;50.792;8.320;2023-04-25T10:08:03;8.60;99.90
17813;DHT22;9030;50.792;8.320;2023-04-25T10:10:32;8.20;99.90
17813;DHT22;9030;50.792;8.320;2023-04-25T10:13:06;8.20;99.90
17813;DHT22;9030;50.792;8.320;2023-04-25T10:15:35;8.10;99.90
17813;DHT22;9030;50.792;8.320;2023-04-25T10:18:02;7.80;99.90
17813;DHT22;9030;50.792;8.320;2023-04-25T10:20:29;7.90;99.90
17813;DHT22;9030;50.792;8.320;2023-04-25T10:23:01;8.00;99.90
17813;DHT22;9030;50.792;8.320;2023-04-25T10:25:29;8.40;99.90
17813;DHT22;9030;50.792;8.320;2023-04-25T10:27:59;8.50;99.90
17813;DHT22;9030;50.792;8.320;2023-04-25T10:30:27;8.60;99.90
17813;DHT22;9030;50.792;8.320;2023-04-25T10:32:55;8.40;99.90
17813;DHT22;9030;50.792;8.320;2023-04-25T10:35:25;8.30;99.90
17813;DHT22;9030;50.792;8.320;2023-04-25T10:38:13;8.40;99.90
17813;DHT22;9030;50.792;8.320;2023-04-25T10:40:40;8.50;99.90
17813;DHT22;9030;50.792;8.320;2023-04-25T10:43:37;8.50;99.90
17813;DHT22;9030;50.792;8.320;2023-04-25T10:46:18;8.40;99.90
17813;DHT22;9030;50.792;8.320;2023-04-25T10:48:48;8.40;99.90
17813;DHT22;9030;50.792;8.320;2023-04-25T10:51:18;8.10;99.90
17813;DHT22;9030;50.792;8.320;2023-04-25T10:53:45;8.20;99.90
17813;DHT22;9030;50.792;8.320;2023-04-25T10:56:16;8.40;99.90
17813;DHT22;9030;50.792;8.320;2023-04-25T10:58:45;8.20;99.90
17813;DHT22;9030;50.792;8.320;2023-04-25T11:01:13;8.00;99.90
17813;DHT22;9030;50.792;8.320;2023-04-25T11:03:41;7.80;99.90
17813;DHT22;9030;50.792;8.320;2023-04-25T11:06:18;7.80;99.90
17813;DHT22;9030;50.792;8.320;2023-04-25T11:08:49;7.90;99.90
17813;DHT22;9030;50.792;8.320;2023-04-25T11:11:16;8.20;99.90
17813;DHT22;9030;50.792;8.320;2023-04-25T11:13:47;8.30;99.90
17813;DHT22;9030;50.792;8.320;2023-04-25T11:16:15;8.00;99.90
17813;DHT22;9030;50.792;8.320;2023-04-25T11:18:42;8.00;99.90
17813;DHT22;9030;50.792;8.320;2023-04-25T11:21:09;7.90;99.90
17813;DHT22;9030;50.792;8.320;2023-04-25T11:23:36;7.90;99.90
17813;DHT22;9030;50.792;8.320;2023-04-25T11:26:03;8.00;99.90
17813;DHT22;9030;50.792;8.320;2023-04-25T11:28:30;8.00;99.90
17813;DHT22;9030;50.792;8.320;2023-04-25T11:30:58;8.00;99.90
17813;DHT22;9030;50.792;8.320;2023-04-25T11:33:25;8.00;99.90
17813;DHT22;9030;50.792;8.320;2023-04-25T11:35:53;8.10;99.90
17813;DHT22;9030;50.792;8.320;2023-04-25T11:38:20;8.40;99.90
17813;DHT22;9030;50.792;8.320;2023-04-25T11:40:50;8.80;99.90
17813;DHT22;9030;50.792;8.320;2023-04-25T11:43:19;9.00;99.90
17813;DHT22;9030;50.792;8.320;2023-04-25T11:45:47;8.90;99.90
17813;DHT22;9030;50.792;8.320;2023-04-25T11:48:15;9.10;99.90
17813;DHT22;9030;50.792;8.320;2023-04-25T11:50:42;9.20;99.90
17813;DHT22;9030;50.792;8.320;2023-04-25T11:53:10;9.20;99.90
17813;DHT22;9030;50.792;8.320;2023-04-25T11:55:37;9.10;99.90
17813;DHT22;9030;50.792;8.320;2023-04-25T11:58:04;9.30;99.90
17813;DHT22;9030;50.792;8.320;2023-04-25T12:00:32;9.50;99.90
17813;DHT22;9030;50.792;8.320;2023-04-25T12:02:58;9.60;99.90
17813;DHT22;9030;50.792;8.320;2023-04-25T12:05:29;9.70;99.90
17813;DHT22;9030;50.792;8.320;2023-04-25T12:08:09;9.70;99.90
17813;DHT22;9030;50.792;8.320;2023-04-25T12:10:37;9.70;99.90
17813;DHT22;9030;50.792;8.320;2023-04-25T12:13:18;9.50;99.90
17813;DHT22;9030;50.792;8.320;2023-04-25T12:15:45;9.00;99.90
17813;DHT22;9030;50.792;8.320;2023-04-25T12:18:12;8.80;99.90
17813;DHT22;9030;50.792;8.320;2023-04-25T12:20:41;8.60;99.90
17813;DHT22;9030;50.792;8.320;2023-04-25T12:23:08;8.70;99.90
17813;DHT22;9030;50.792;8.320;2023-04-25T12:25:37;8.70;99.90
17813;DHT22;9030;50.792;8.320;2023-04-25T12:28:11;8.80;99.90
17813;DHT22;9030;50.792;8.320;2023-04-25T12:30:58;8.70;99.90
17813;DHT22;9030;50.792;8.320;2023-04-25T12:33:27;8.80;99.90
17813;DHT22;9030;50.792;8.320;2023-04-25T12:35:55;8.90;99.90
17813;DHT22;9030;50.792;8.320;2023-04-25T12:38:23;8.80;99.90
17813;DHT22;9030;50.792;8.320;2023-04-25T12:40:51;9.00;99.90
17813;DHT22;9030;50.792;8.320;2023-04-25T12:43:17;9.30;99.90
17813;DHT22;9030;50.792;8.320;2023-04-25T12:45:44;9.00;99.90
17813;DHT22;9030;50.792;8.320;2023-04-25T12:48:12;8.90;99.90
17813;DHT22;9030;50.792;8.320;2023-04-25T12:50:38;9.40;99.90
17813;DHT22;9030;50.792;8.320;2023-04-25T12:53:07;9.70;99.90
17813;DHT22;9030;50.792;8.320;2023-04-25T12:55:34;10.40;99.90
17813;DHT22;9030;50.792;8.320;2023-04-25T12:58:01;10.80;99.90
17813;DHT22;9030;50.792;8.320;2023-04-25T13:00:28;10.60;99.90
17813;DHT22;9030;50.792;8.320;2023-04-25T13:02:55;10.60;99.90
17813;DHT22;9030;50.792;8.320;2023-04-25T13:05:22;10.70;99.90
17813;DHT22;9030;50.792;8.320;2023-04-25T13:07:49;10.30;99.90
17813;DHT22;9030;50.792;8.320;2023-04-25T13:10:18;9.10;99.90
17813;DHT22;9030;50.792;8.320;2023-04-25T13:12:44;8.50;99.90
17813;DHT22;9030;50.792;8.320;2023-04-25T13:15:12;8.20;99.90
17813;DHT22;9030;50.792;8.320;2023-04-25T13:17:40;8.10;99.90
17813;DHT22;9030;50.792;8.320;2023-04-25T13:20:08;8.10;99.90
17813;DHT22;9030;50.792;8.320;2023-04-25T13:22:35;8.10;99.90
17813;DHT22;9030;50.792;8.320;2023-04-25T13:25:03;8.20;99.90
17813;DHT22;9030;50.792;8.320;2023-04-25T13:27:32;8.30;99.90
17813;DHT22;9030;50.792;8.320;2023-04-25T13:29:59;8.60;99.90
17813;DHT22;9030;50.792;8.320;2023-04-25T13:32:26;8.90;99.90
17813;DHT22;9030;50.792;8.320;2023-04-25T13:34:53;9.20;99.90
17813;DHT22;9030;50.792;8.320;2023-04-25T13:37:21;9.40;99.90
17813;DHT22;9030;50.792;8.320;2023-04-25T13:39:49;9.60;99.90
17813;DHT22;9030;50.792;8.320;2023-04-25T13:42:16;10.00;99.90
17813;DHT22;9030;50.792;8.320;2023-04-25T13:44:44;10.40;99.90
17813;DHT22;9030;50.792;8.320;2023-04-25T13:47:11;10.70;99.90
17813;DHT22;9030;50.792;8.320;2023-04-25T13:49:38;10.90;99.90
17813;DHT22;9030;50.792;8.320;2023-04-25T13:52:04;11.20;99.90
17813;DHT22;9030;50.792;8.320;2023-04-25T13:54:31;11.60;99.90
17813;DHT22;9030;50.792;8.320;2023-04-25T13:56:58;11.30;99.90
17813;DHT22;9030;50.792;8.320;2023-04-25T13:59:25;10.70;99.90
17813;DHT22;9030;50.792;8.320;2023-04-25T14:01:54;10.30;99.90
17813;DHT22;9030;50.792;8.320;2023-04-25T14:04:20;9.70;99.90
17813;DHT22;9030;50.792;8.320;2023-04-25T14:06:47;9.40;99.90
17813;DHT22;9030;50.792;8.320;2023-04-25T14:09:14;9.20;99.90
17813;DHT22;9030;50.792;8.320;2023-04-25T14:11:41;9.10;99.90
17813;DHT22;9030;50.792;8.320;2023-04-25T14:14:08;9.30;99.90
17813;DHT22;9030;50.792;8.320;2023-04-25T14:16:35;9.40;99.90
17813;DHT22;9030;50.792;8.320;2023-04-25T14:19:03;9.60;99.90
17813;DHT22;9030;50.792;8.320;2023-04-25T14:21:30;9.70;99.90
17813;DHT22;9030;50.792;8.320;2023-04-25T14:23:58;9.90;99.90
17813;DHT22;9030;50.792;8.320;2023-04-25T14:26:25;9.80;99.90
17813;DHT22;9030;50.792;8.320;2023-04-25T14:28:51;9.30;99.90
17813;DHT22;9030;50.792;8.320;2023-04-25T14:31:18;9.30;99.90
17813;DHT22;9030;50.792;8.320;2023-04-25T14:33:47;9.90;99.90
17813;DHT22;9030;50.792;8.320;2023-04-25T14:36:15;10.50;99.90
17813;DHT22;9030;50.792;8.320;2023-04-25T14:38:42;10.70;99.90
17813;DHT22;9030;50.792;8.320;2023-04-25T14:41:09;11.00;99.90
17813;DHT22;9030;50.792;8.320;2023-04-25T14:43:36;10.40;99.90
17813;DHT22;9030;50.792;8.320;2023-04-25T14:46:02;10.00;99.90
17813;DHT22;9030;50.792;8.320;2023-04-25T14:48:29;9.90;99.90
17813;DHT22;9030;50.792;8.320;2023-04-25T14:50:56;10.10;99.90
17813;DHT22;9030;50.792;8.320;2023-04-25T14:53:25;10.20;99.90
17813;DHT22;9030;50.792;8.320;2023-04-25T14:55:52;9.90;99.90
17813;DHT22;9030;50.792;8.320;2023-04-25T14:58:19;10.00;99.90
17813;DHT22;9030;50.792;8.320;2023-04-25T15:00:46;10.30;99.90
17813;DHT22;9030;50.792;8.320;2023-04-25T15:03:13;10.40;99.90
17813;DHT22;9030;50.792;8.320;2023-04-25T15:05:42;10.40;99.90
17813;DHT22;9030;50.792;8.320;2023-04-25T15:08:09;10.20;99.90
17813;DHT22;9030;50.792;8.320;2023-04-25T15:10:37;10.00;99.90
17813;DHT22;9030;50.792;8.320;2023-04-25T15:13:04;9.60;99.90
17813;DHT22;9030;50.792;8.320;2023-04-25T15:15:31;9.50;99.90
17813;DHT22;9030;50.792;8.320;2023-04-25T15:17:57;9.50;99.90
17813;DHT22;9030;50.792;8.320;2023-04-25T15:20:24;9.20;99.90
17813;DHT22;9030;50.792;8.320;2023-04-25T15:22:52;9.20;99.90
17813;DHT22;9030;50.792;8.320;2023-04-25T15:25:19;9.00;99.90
17813;DHT22;9030;50.792;8.320;2023-04-25T15:27:47;9.00;99.90
17813;DHT22;9030;50.792;8.320;2023-04-25T15:30:15;9.00;99.90
17813;DHT22;9030;50.792;8.320;2023-04-25T15:32:42;8.90;99.90
17813;DHT22;9030;50.792;8.320;2023-04-25T15:35:09;8.60;99.90
17813;DHT22;9030;50.792;8.320;2023-04-25T15:37:37;8.50;99.90
17813;DHT22;9030;50.792;8.320;2023-04-25T15:40:06;8.70;99.90
17813;DHT22;9030;50.792;8.320;2023-04-25T15:42:35;8.70;99.90
17813;DHT22;9030;50.792;8.320;2023-04-25T15:45:04;8.90;99.90
17813;DHT22;9030;50.792;8.320;2023-04-25T15:47:31;9.00;99.90
17813;DHT22;9030;50.792;8.320;2023-04-25T15:49:58;8.70;99.90
17813;DHT22;9030;50.792;8.320;2023-04-25T15:52:25;8.50;99.90
17813;DHT22;9030;50.792;8.320;2023-04-25T15:54:52;8.80;99.90
17813;DHT22;9030;50.792;8.320;2023-04-25T15:57:20;9.30;99.90
17813;DHT22;9030;50.792;8.320;2023-04-25T15:59:47;9.70;99.90
17813;DHT22;9030;50.792;8.320;2023-04-25T16:02:16;9.60;99.90